createdAt,value
2023-03-31T00:01:36.923Z,98537.88
2023-03-31T00:04:05.468Z,98547.47
2023-03-31T00:06:41.862Z,98549.88
2023-03-31T00:09:13.686Z,98549.66
2023-03-31T00:11:40.898Z,98557.06
2023-03-31T00:14:09.183Z,98546.66
2023-03-31T00:16:38.343Z,98553.09
2023-03-31T00:19:09.764Z,98555.56
2023-03-31T00:21:37.012Z,98560.41
2023-03-31T00:24:07.077Z,98556.38
2023-03-31T00:26:35.644Z,98558.22
2023-03-31T00:29:06.206Z,98562.50
2023-03-31T00:31:35.047Z,98564.94
2023-03-31T00:34:02.667Z,98553.44
2023-03-31T00:36:30.000Z,98548.09
2023-03-31T00:39:07.328Z,98546.47
2023-03-31T00:41:36.519Z,98549.72
2023-03-31T00:44:28.045Z,98551.81
2023-03-31T00:47:18.083Z,98554.75
2023-03-31T00:49:51.714Z,98553.94
2023-03-31T00:52:37.391Z,98546.97
2023-03-31T00:55:13.658Z,98548.28
2023-03-31T00:57:44.616Z,98549.88
2023-03-31T01:00:18.340Z,98559.75
2023-03-31T01:03:03.437Z,98553.94
2023-03-31T01:05:36.711Z,98553.28
2023-03-31T01:08:05.982Z,98554.91
2023-03-31T01:10:43.174Z,98553.84
2023-03-31T01:13:14.878Z,98549.88
2023-03-31T01:15:43.847Z,98552.31
2023-03-31T01:18:14.696Z,98553.94
2023-03-31T01:21:20.028Z,98551.03
2023-03-31T01:24:26.600Z,98538.72
2023-03-31T01:27:13.848Z,98539.53
2023-03-31T01:30:45.052Z,98545.69
2023-03-31T01:33:50.715Z,98536.28
2023-03-31T01:36:53.054Z,98540.00
2023-03-31T01:40:01.219Z,98534.66
2023-03-31T01:42:46.588Z,98541.84
2023-03-31T01:45:51.652Z,98546.97
2023-03-31T01:48:44.867Z,98532.72
2023-03-31T01:51:29.337Z,98547.94
2023-03-31T01:54:18.286Z,98543.06
2023-03-31T01:57:11.405Z,98551.09
2023-03-31T01:59:52.404Z,98555.06
2023-03-31T02:02:37.218Z,98557.97
2023-03-31T02:05:17.426Z,98555.88
2023-03-31T02:07:58.627Z,98555.88
2023-03-31T02:10:31.429Z,98554.75
2023-03-31T02:13:02.818Z,98556.59
2023-03-31T02:15:42.327Z,98546.19
2023-03-31T02:18:17.172Z,98546.75
2023-03-31T02:20:50.585Z,98541.88
2023-03-31T02:23:26.564Z,98534.69
2023-03-31T02:26:10.222Z,98548.75
2023-03-31T02:28:38.838Z,98547.63
2023-03-31T02:31:19.526Z,98550.88
2023-03-31T02:33:48.732Z,98551.44
2023-03-31T02:36:17.119Z,98549.31
2023-03-31T02:38:55.708Z,98550.38
2023-03-31T02:41:23.364Z,98551.44
2023-03-31T02:43:50.712Z,98546.31
2023-03-31T02:46:18.089Z,98551.44
2023-03-31T02:49:08.491Z,98547.13
2023-03-31T02:51:52.939Z,98540.97
2023-03-31T02:54:57.764Z,98540.50
2023-03-31T02:57:33.958Z,98543.41
2023-03-31T03:00:52.916Z,98540.19
2023-03-31T03:03:42.956Z,98552.16
2023-03-31T03:06:53.756Z,98549.72
2023-03-31T03:10:00.288Z,98542.44
2023-03-31T03:12:45.068Z,98542.78
2023-03-31T03:15:31.546Z,98550.19
2023-03-31T03:17:59.654Z,98546.97
2023-03-31T03:20:27.820Z,98548.59
2023-03-31T03:22:55.417Z,98551.28
2023-03-31T03:25:24.299Z,98549.06
2023-03-31T03:27:53.106Z,98549.06
2023-03-31T03:30:20.362Z,98546.88
2023-03-31T03:32:48.031Z,98545.75
2023-03-31T03:35:15.396Z,98542.25
2023-03-31T03:37:43.704Z,98544.03
2023-03-31T03:40:11.303Z,98541.63
2023-03-31T03:42:38.707Z,98530.59
2023-03-31T03:45:07.050Z,98535.94
2023-03-31T03:47:36.021Z,98523.09
2023-03-31T03:50:05.257Z,98532.69
2023-03-31T03:52:32.835Z,98528.66
2023-03-31T03:55:03.282Z,98537.72
2023-03-31T03:57:30.864Z,98525.97
2023-03-31T03:59:58.037Z,98521.72
2023-03-31T04:02:28.025Z,98513.44
2023-03-31T04:04:55.289Z,98512.41
2023-03-31T04:07:22.700Z,98519.59
2023-03-31T04:09:49.686Z,98508.09
2023-03-31T04:12:16.991Z,98506.00
2023-03-31T04:14:44.038Z,98507.63
2023-03-31T04:17:15.626Z,98514.56
2023-03-31T04:19:42.902Z,98502.84
2023-03-31T04:22:11.723Z,98501.81
2023-03-31T04:24:38.942Z,98488.47
2023-03-31T04:27:10.457Z,98482.06
2023-03-31T04:29:38.022Z,98481.50
2023-03-31T04:32:05.898Z,98477.19
2023-03-31T04:34:35.991Z,98482.53
2023-03-31T04:37:03.976Z,98484.63
2023-03-31T04:39:31.709Z,98486.50
2023-03-31T04:42:00.901Z,98485.13
2023-03-31T04:44:28.812Z,98479.00
2023-03-31T04:46:56.794Z,98481.88
2023-03-31T04:49:23.879Z,98492.56
2023-03-31T04:51:51.301Z,98490.97
2023-03-31T04:54:18.434Z,98476.53
2023-03-31T04:56:46.782Z,98476.53
2023-03-31T04:59:14.362Z,98486.41
2023-03-31T05:01:45.537Z,98484.00
2023-03-31T05:04:14.454Z,98481.88
2023-03-31T05:06:41.968Z,98472.84
2023-03-31T05:09:10.062Z,98473.41
2023-03-31T05:11:38.330Z,98472.59
2023-03-31T05:14:05.696Z,98478.72
2023-03-31T05:16:33.109Z,98476.06
2023-03-31T05:19:00.641Z,98476.06
2023-03-31T05:21:30.426Z,98471.28
2023-03-31T05:23:58.058Z,98468.63
2023-03-31T05:26:26.634Z,98471.84
2023-03-31T05:28:54.660Z,98468.69
2023-03-31T05:31:22.596Z,98463.91
2023-03-31T05:33:49.759Z,98468.78
2023-03-31T05:36:18.412Z,98468.31
2023-03-31T05:38:46.032Z,98462.16
2023-03-31T05:41:13.463Z,98469.91
2023-03-31T05:43:40.727Z,98464.09
2023-03-31T05:46:08.573Z,98462.78
2023-03-31T05:48:37.884Z,98454.56
2023-03-31T05:51:05.955Z,98450.31
2023-03-31T05:53:34.047Z,98446.09
2023-03-31T05:56:06.376Z,98450.16
2023-03-31T05:58:36.196Z,98447.25
2023-03-31T06:01:11.268Z,98453.72
2023-03-31T06:03:41.837Z,98452.66
2023-03-31T06:06:14.723Z,98450.56
2023-03-31T06:08:44.471Z,98444.28
2023-03-31T06:11:16.330Z,98441.75
2023-03-31T06:13:43.491Z,98444.88
2023-03-31T06:16:13.229Z,98439.34
2023-03-31T06:18:41.738Z,98446.94
2023-03-31T06:21:16.859Z,98436.38
2023-03-31T06:23:45.926Z,98434.91
2023-03-31T06:26:17.718Z,98440.13
2023-03-31T06:28:46.855Z,98437.41
2023-03-31T06:31:21.269Z,98437.06
2023-03-31T06:33:49.464Z,98432.72
2023-03-31T06:36:20.244Z,98431.00
2023-03-31T06:38:48.448Z,98435.41
2023-03-31T06:41:18.705Z,98428.56
2023-03-31T06:43:46.390Z,98431.31
2023-03-31T06:46:14.459Z,98428.69
2023-03-31T06:48:42.207Z,98431.69
2023-03-31T06:51:10.329Z,98431.78
2023-03-31T06:53:37.804Z,98429.97
2023-03-31T06:56:06.997Z,98431.59
2023-03-31T06:58:34.700Z,98434.84
2023-03-31T07:01:05.957Z,98423.91
2023-03-31T07:03:34.696Z,98431.19
2023-03-31T07:06:03.093Z,98424.22
2023-03-31T07:08:31.174Z,98423.66
2023-03-31T07:11:01.158Z,98412.31
2023-03-31T07:13:29.348Z,98408.53
2023-03-31T07:15:57.356Z,98414.44
2023-03-31T07:18:26.187Z,98417.09
2023-03-31T07:20:53.887Z,98415.16
2023-03-31T07:23:21.357Z,98409.47
2023-03-31T07:25:49.185Z,98404.72
2023-03-31T07:28:17.369Z,98402.84
2023-03-31T07:30:44.837Z,98400.69
2023-03-31T07:33:12.744Z,98395.59
2023-03-31T07:35:41.846Z,98402.88
2023-03-31T07:38:11.304Z,98401.03
2023-03-31T07:40:40.077Z,98401.06
2023-03-31T07:43:07.624Z,98398.09
2023-03-31T07:45:35.878Z,98403.75
2023-03-31T07:48:03.369Z,98400.56
2023-03-31T07:50:30.916Z,98394.91
2023-03-31T07:52:59.757Z,98385.34
2023-03-31T07:55:27.401Z,98382.53
2023-03-31T07:57:54.601Z,98385.75
2023-03-31T08:00:23.302Z,98379.31
2023-03-31T08:02:50.762Z,98381.03
2023-03-31T08:05:21.136Z,98374.66
2023-03-31T08:07:50.804Z,98377.59
2023-03-31T08:10:26.116Z,98375.97
2023-03-31T08:12:56.027Z,98370.28
2023-03-31T08:15:23.797Z,98365.91
2023-03-31T08:17:51.197Z,98361.47
2023-03-31T08:20:18.659Z,98356.16
2023-03-31T08:22:46.069Z,98343.09
2023-03-31T08:25:13.390Z,98345.34
2023-03-31T08:27:41.176Z,98335.03
2023-03-31T08:30:11.530Z,98338.69
2023-03-31T08:32:39.186Z,98339.03
2023-03-31T08:35:08.718Z,98322.25
2023-03-31T08:37:37.522Z,98325.41
2023-03-31T08:40:09.556Z,98320.22
2023-03-31T08:42:43.479Z,98311.81
2023-03-31T08:45:32.074Z,98307.44
2023-03-31T08:48:29.223Z,98301.91
2023-03-31T08:51:25.844Z,98296.50
2023-03-31T08:54:05.649Z,98293.81
2023-03-31T08:56:39.171Z,98298.34
2023-03-31T08:59:20.117Z,98299.84
2023-03-31T09:02:13.487Z,98293.78
2023-03-31T09:05:15.448Z,98286.09
2023-03-31T09:08:09.735Z,98284.84
2023-03-31T09:11:04.615Z,98279.53
2023-03-31T09:14:13.993Z,98273.50
2023-03-31T09:16:59.481Z,98262.16
2023-03-31T09:19:54.775Z,98263.22
2023-03-31T09:22:37.295Z,98258.78
2023-03-31T09:25:25.271Z,98252.44
2023-03-31T09:27:59.208Z,98251.13
2023-03-31T09:30:33.532Z,98249.69
2023-03-31T09:33:32.135Z,98242.81
2023-03-31T09:36:01.723Z,98224.00
2023-03-31T09:38:31.033Z,98225.69
2023-03-31T09:41:02.424Z,98212.69
2023-03-31T09:43:35.107Z,98207.88
2023-03-31T09:46:12.694Z,98200.53
2023-03-31T09:48:50.654Z,98195.88
2023-03-31T09:51:30.477Z,98198.28
2023-03-31T09:54:10.406Z,98185.28
2023-03-31T09:56:43.501Z,98173.19
2023-03-31T09:59:20.569Z,98163.03
2023-03-31T10:01:53.332Z,98171.47
2023-03-31T10:04:28.735Z,98176.59
2023-03-31T10:06:57.141Z,98176.81
2023-03-31T10:09:31.721Z,98174.59
2023-03-31T10:12:14.957Z,98162.13
2023-03-31T10:14:50.520Z,98149.25
2023-03-31T10:17:28.062Z,98159.31
2023-03-31T10:19:59.815Z,98157.09
2023-03-31T10:22:32.428Z,98153.25
2023-03-31T10:25:28.871Z,98150.50
2023-03-31T10:27:57.879Z,98146.13
2023-03-31T10:30:35.272Z,98144.00
2023-03-31T10:33:23.066Z,98139.56
2023-03-31T10:36:00.358Z,98125.06
2023-03-31T10:38:37.346Z,98127.66
2023-03-31T10:41:04.931Z,98114.13
2023-03-31T10:43:50.017Z,98113.19
2023-03-31T10:46:17.925Z,98112.22
2023-03-31T10:48:46.416Z,98104.56
2023-03-31T10:51:21.800Z,98106.94
2023-03-31T10:53:52.918Z,98110.75
2023-03-31T10:56:35.045Z,98106.22
2023-03-31T10:59:26.478Z,98109.69
2023-03-31T11:02:29.936Z,98107.53
2023-03-31T11:05:28.766Z,98101.50
2023-03-31T11:08:31.311Z,98090.63
2023-03-31T11:11:46.496Z,98093.53
2023-03-31T11:14:46.829Z,98086.97
2023-03-31T11:17:32.194Z,98092.25
2023-03-31T11:20:09.759Z,98094.84
2023-03-31T11:23:06.280Z,98089.81
2023-03-31T11:26:07.397Z,98086.06
2023-03-31T11:29:17.541Z,98082.91
2023-03-31T11:32:25.928Z,98078.56
2023-03-31T11:35:10.151Z,98085.66
2023-03-31T11:38:05.356Z,98077.78
2023-03-31T11:41:12.764Z,98074.22
2023-03-31T11:43:47.077Z,98067.91
2023-03-31T11:46:46.969Z,98064.88
2023-03-31T11:49:24.913Z,98062.03
2023-03-31T11:52:05.996Z,98063.38
2023-03-31T11:54:41.285Z,98059.44
2023-03-31T11:57:30.979Z,98057.19
2023-03-31T12:00:16.779Z,98050.16
2023-03-31T12:03:14.498Z,98044.59
2023-03-31T12:05:50.834Z,98037.81
2023-03-31T12:08:43.614Z,98034.94
2023-03-31T12:11:28.760Z,98025.25
2023-03-31T12:14:01.348Z,98025.13
2023-03-31T12:16:49.449Z,98023.06
2023-03-31T12:19:43.470Z,98016.56
2023-03-31T12:22:13.592Z,98014.03
2023-03-31T12:24:41.183Z,98004.44
2023-03-31T12:27:27.717Z,97999.66
2023-03-31T12:30:06.261Z,97999.34
2023-03-31T12:32:40.937Z,97988.47
2023-03-31T12:35:37.289Z,97990.09
2023-03-31T12:38:10.594Z,97975.88
2023-03-31T12:41:12.703Z,97975.06
2023-03-31T12:44:11.773Z,97963.25
2023-03-31T12:47:11.132Z,97944.31
2023-03-31T12:49:50.750Z,97958.50
2023-03-31T12:52:39.570Z,97952.19
2023-03-31T12:55:34.976Z,97949.47
2023-03-31T12:58:24.988Z,97945.38
2023-03-31T13:01:14.782Z,97934.25
2023-03-31T13:04:20.196Z,97925.34
2023-03-31T13:06:54.605Z,97917.78
2023-03-31T13:09:31.101Z,97922.13
2023-03-31T13:11:58.340Z,97919.13
2023-03-31T13:14:42.415Z,97914.97
2023-03-31T13:17:38.856Z,97903.66
2023-03-31T13:20:36.021Z,97900.28
2023-03-31T13:23:25.835Z,97893.41
2023-03-31T13:25:58.901Z,97895.78
2023-03-31T13:28:42.562Z,97888.78
2023-03-31T13:31:13.376Z,97884.81
2023-03-31T13:34:02.314Z,97875.09
2023-03-31T13:36:32.560Z,97875.16
2023-03-31T13:39:33.840Z,97871.66
2023-03-31T13:43:06.932Z,97862.41
2023-03-31T13:46:19.831Z,97870.91
2023-03-31T13:49:17.961Z,97867.41
2023-03-31T13:51:59.527Z,97868.81
2023-03-31T13:54:30.001Z,97868.66
2023-03-31T13:57:35.946Z,97865.31
2023-03-31T14:00:33.479Z,97860.53
2023-03-31T14:03:37.569Z,97856.03
2023-03-31T14:06:27.924Z,97846.13
2023-03-31T14:09:05.846Z,97847.38
2023-03-31T14:11:33.716Z,97857.25
2023-03-31T14:14:09.627Z,97848.00
2023-03-31T14:16:41.748Z,97840.34
2023-03-31T14:19:50.232Z,97842.50
2023-03-31T14:22:44.672Z,97846.63
2023-03-31T14:25:44.584Z,97855.78
2023-03-31T14:28:18.518Z,97859.25
2023-03-31T14:31:13.379Z,97855.50
2023-03-31T14:34:30.998Z,97856.56
2023-03-31T14:37:21.288Z,97854.59
2023-03-31T14:39:56.652Z,97850.06
2023-03-31T14:42:37.105Z,97846.03
2023-03-31T14:45:20.555Z,97833.94
2023-03-31T14:48:16.293Z,97843.44
2023-03-31T14:50:46.675Z,97837.31
2023-03-31T14:53:16.288Z,97832.31
2023-03-31T14:55:57.862Z,97824.03
2023-03-31T14:58:38.746Z,97829.09
2023-03-31T15:01:10.542Z,97808.69
2023-03-31T15:03:42.172Z,97797.88
2023-03-31T15:06:11.275Z,97799.16
2023-03-31T15:08:38.816Z,97794.06
2023-03-31T15:11:14.221Z,97786.09
2023-03-31T15:14:00.842Z,97783.69
2023-03-31T15:16:45.588Z,97774.88
2023-03-31T15:19:22.685Z,97777.72
2023-03-31T15:22:14.279Z,97769.72
2023-03-31T15:24:41.562Z,97773.53
2023-03-31T15:27:37.860Z,97769.72
2023-03-31T15:30:16.915Z,97764.31
2023-03-31T15:32:45.123Z,97763.53
2023-03-31T15:35:23.016Z,97763.31
2023-03-31T15:37:54.146Z,97756.34
2023-03-31T15:40:25.642Z,97749.13
2023-03-31T15:45:44.773Z,97739.78
2023-03-31T15:48:48.540Z,97747.34
2023-03-31T15:51:29.981Z,97732.56
2023-03-31T15:53:57.491Z,97728.56
2023-03-31T15:56:44.466Z,97730.78
2023-03-31T15:59:25.189Z,97713.00
2023-03-31T16:01:59.726Z,97711.72
2023-03-31T16:04:35.368Z,97703.09
2023-03-31T16:07:09.414Z,97703.41
2023-03-31T16:09:51.741Z,97692.44
2023-03-31T16:12:43.466Z,97693.88
2023-03-31T16:15:18.368Z,97697.16
2023-03-31T16:17:56.704Z,97689.66
2023-03-31T16:20:40.546Z,97689.47
2023-03-31T16:23:40.623Z,97675.81
2023-03-31T16:26:08.922Z,97672.63
2023-03-31T16:28:38.061Z,97662.91
2023-03-31T16:31:36.968Z,97653.84
2023-03-31T16:34:11.186Z,97641.75
2023-03-31T16:36:39.532Z,97654.75
2023-03-31T16:39:07.789Z,97652.34
2023-03-31T16:41:38.040Z,97648.69
2023-03-31T16:44:06.323Z,97651.19
2023-03-31T16:46:34.084Z,97651.00
2023-03-31T16:49:01.360Z,97640.81
2023-03-31T16:51:28.924Z,97642.22
2023-03-31T16:53:58.850Z,97647.13
2023-03-31T16:56:27.156Z,97644.22
2023-03-31T16:58:55.189Z,97634.00
2023-03-31T17:01:22.742Z,97640.03
2023-03-31T17:03:49.998Z,97644.41
2023-03-31T17:06:17.586Z,97645.03
2023-03-31T17:08:44.641Z,97640.25
2023-03-31T17:11:14.445Z,97645.25
2023-03-31T17:13:43.654Z,97640.44
2023-03-31T17:18:42.408Z,97639.25
2023-03-31T17:21:13.687Z,97635.28
2023-03-31T17:23:42.471Z,97626.47
2023-03-31T17:26:12.543Z,97617.91
2023-03-31T17:28:41.818Z,97619.31
2023-03-31T17:31:19.850Z,97615.13
2023-03-31T17:33:47.650Z,97607.66
2023-03-31T17:36:15.694Z,97604.75
2023-03-31T17:38:43.431Z,97605.34
2023-03-31T17:41:13.762Z,97601.34
2023-03-31T17:43:46.153Z,97594.97
2023-03-31T17:46:15.389Z,97599.38
2023-03-31T17:48:43.418Z,97592.97
2023-03-31T17:51:15.235Z,97588.97
2023-03-31T17:53:45.755Z,97585.63
2023-03-31T17:56:15.956Z,97589.97
2023-03-31T17:58:43.636Z,97580.91
2023-03-31T18:01:12.611Z,97586.41
2023-03-31T18:03:39.825Z,97590.78
2023-03-31T18:06:12.355Z,97589.28
2023-03-31T18:08:41.628Z,97587.13
2023-03-31T18:11:10.850Z,97585.66
2023-03-31T18:13:38.599Z,97584.63
2023-03-31T18:16:09.867Z,97576.16
2023-03-31T18:18:39.507Z,97573.84
2023-03-31T18:21:11.330Z,97575.84
2023-03-31T18:23:39.292Z,97585.59
2023-03-31T18:26:11.870Z,97583.78
2023-03-31T18:28:40.762Z,97593.84
2023-03-31T18:31:09.820Z,97592.84
2023-03-31T18:33:38.115Z,97601.00
2023-03-31T18:36:07.516Z,97599.97
2023-03-31T18:38:36.848Z,97597.97
2023-03-31T18:41:04.751Z,97588.38
2023-03-31T18:43:33.327Z,97592.25
2023-03-31T18:46:01.679Z,97593.09
2023-03-31T18:48:29.353Z,97594.28
2023-03-31T18:50:57.739Z,97591.09
2023-03-31T18:53:25.390Z,97592.47
2023-03-31T18:55:56.853Z,97594.63
2023-03-31T18:58:29.990Z,97588.75
2023-03-31T19:00:59.553Z,97585.28
2023-03-31T19:03:27.921Z,97590.66
2023-03-31T19:06:10.142Z,97589.84
2023-03-31T19:08:38.266Z,97585.03
2023-03-31T19:11:13.000Z,97586.44
2023-03-31T19:13:42.851Z,97587.00
2023-03-31T19:16:13.215Z,97584.63
2023-03-31T19:18:40.974Z,97584.38
2023-03-31T19:21:08.430Z,97573.41
2023-03-31T19:23:35.904Z,97569.69
2023-03-31T19:26:03.797Z,97571.34
2023-03-31T19:28:31.539Z,97562.28
2023-03-31T19:30:59.604Z,97571.13
2023-03-31T19:33:27.535Z,97560.19
2023-03-31T19:35:55.572Z,97563.75
2023-03-31T19:38:23.296Z,97552.19
2023-03-31T19:40:51.082Z,97555.94
2023-03-31T19:43:24.730Z,97547.69
2023-03-31T19:45:54.098Z,97539.91
2023-03-31T19:48:21.613Z,97531.63
2023-03-31T19:50:59.614Z,97545.66
2023-03-31T19:53:31.258Z,97542.72
2023-03-31T19:56:01.946Z,97540.91
2023-03-31T19:58:30.830Z,97549.84
2023-03-31T20:00:58.347Z,97547.72
2023-03-31T20:03:27.965Z,97544.03
2023-03-31T20:06:12.165Z,97552.44
2023-03-31T20:08:44.228Z,97546.31
2023-03-31T20:11:14.975Z,97545.31
2023-03-31T20:13:44.406Z,97538.88
2023-03-31T20:16:21.568Z,97549.63
2023-03-31T20:18:58.740Z,97543.44
2023-03-31T20:21:29.019Z,97537.56
2023-03-31T20:23:57.238Z,97531.41
2023-03-31T20:26:32.425Z,97537.06
2023-03-31T20:29:04.415Z,97529.31
2023-03-31T20:31:39.092Z,97531.00
2023-03-31T20:34:12.837Z,97532.69
2023-03-31T20:36:43.217Z,97535.13
2023-03-31T20:39:12.835Z,97536.22
2023-03-31T20:41:40.201Z,97540.03
2023-03-31T20:44:13.511Z,97551.66
2023-03-31T20:46:43.825Z,97555.38
2023-03-31T20:49:12.245Z,97567.44
2023-03-31T20:51:41.244Z,97558.41
2023-03-31T20:54:08.840Z,97562.31
2023-03-31T20:56:40.338Z,97562.38
2023-03-31T20:59:12.501Z,97566.16
2023-03-31T21:01:42.193Z,97559.13
2023-03-31T21:04:11.758Z,97562.69
2023-03-31T21:06:43.272Z,97565.66
2023-03-31T21:09:12.272Z,97571.00
2023-03-31T21:11:40.697Z,97573.16
2023-03-31T21:14:12.718Z,97571.00
2023-03-31T21:16:40.522Z,97567.22
2023-03-31T21:19:07.752Z,97579.22
2023-03-31T21:21:36.198Z,97567.38
2023-03-31T21:24:03.872Z,97576.47
2023-03-31T21:26:31.302Z,97577.78
2023-03-31T21:28:58.477Z,97579.41
2023-03-31T21:31:27.160Z,97577.22
2023-03-31T21:33:57.499Z,97581.53
2023-03-31T21:36:26.609Z,97583.41
2023-03-31T21:38:57.100Z,97580.97
2023-03-31T21:41:29.878Z,97586.34
2023-03-31T21:44:00.488Z,97586.63
2023-03-31T21:46:32.904Z,97574.59
2023-03-31T21:49:01.217Z,97580.50
2023-03-31T21:51:28.945Z,97574.91
2023-03-31T21:53:56.454Z,97585.38
2023-03-31T21:56:28.096Z,97582.50
2023-03-31T21:58:55.713Z,97575.31
2023-03-31T22:01:23.597Z,97586.66
2023-03-31T22:03:51.993Z,97590.69
2023-03-31T22:06:20.589Z,97588.59
2023-03-31T22:08:47.927Z,97592.66
2023-03-31T22:11:15.893Z,97590.56
2023-03-31T22:13:43.046Z,97590.00
2023-03-31T22:16:18.780Z,97592.13
2023-03-31T22:18:47.583Z,97596.44
2023-03-31T22:21:22.860Z,97596.97
2023-03-31T22:23:56.906Z,97602.38
2023-03-31T22:26:27.086Z,97595.97
2023-03-31T22:28:55.862Z,97608.28
2023-03-31T22:31:23.394Z,97605.63
2023-03-31T22:33:50.551Z,97605.63
2023-03-31T22:36:18.104Z,97608.31
2023-03-31T22:38:45.223Z,97602.44
2023-03-31T22:41:13.047Z,97607.25
2023-03-31T22:43:40.929Z,97609.66
2023-03-31T22:46:09.738Z,97608.88
2023-03-31T22:48:37.103Z,97602.19
2023-03-31T22:51:08.707Z,97607.81
2023-03-31T22:53:35.980Z,97594.72
2023-03-31T22:56:07.530Z,97603.53
2023-03-31T22:58:34.931Z,97602.44
2023-03-31T23:01:02.986Z,97595.53
2023-03-31T23:03:30.632Z,97583.72
2023-03-31T23:06:02.222Z,97588.03
2023-03-31T23:08:29.374Z,97593.91
2023-03-31T23:10:59.608Z,97595.78
2023-03-31T23:13:28.297Z,97601.94
2023-03-31T23:15:56.095Z,97605.72
2023-03-31T23:18:23.515Z,97604.13
2023-03-31T23:20:50.978Z,97601.19
2023-03-31T23:23:18.201Z,97603.59
2023-03-31T23:25:45.803Z,97600.38
2023-03-31T23:28:13.508Z,97603.88
2023-03-31T23:30:41.206Z,97603.88
2023-03-31T23:33:08.895Z,97604.13
2023-03-31T23:35:36.671Z,97600.94
2023-03-31T23:38:04.153Z,97609.28
2023-03-31T23:40:31.792Z,97606.31
2023-03-31T23:42:58.868Z,97590.81
2023-03-31T23:45:26.224Z,97603.13
2023-03-31T23:47:53.428Z,97597.22
2023-03-31T23:50:20.986Z,97599.38
2023-03-31T23:52:49.073Z,97597.25
2023-03-31T23:55:16.789Z,97594.56
2023-03-31T23:57:43.970Z,97598.84
